sensor_id;sensor_type;location;lat;lon;timestamp;P1;durP1;ratioP1;P2;durP2;ratioP2
6821;SDS011;3449;48.728;8.968;2022-08-24T00:02:13;5.17;;;3.20;;
6821;SDS011;3449;48.728;8.968;2022-08-24T00:04:41;4.90;;;3.37;;
6821;SDS011;3449;48.728;8.968;2022-08-24T00:07:08;7.93;;;4.03;;
6821;SDS011;3449;48.728;8.968;2022-08-24T00:09:38;7.10;;;3.43;;
6821;SDS011;3449;48.728;8.968;2022-08-24T00:12:06;5.13;;;3.20;;
6821;SDS011;3449;48.728;8.968;2022-08-24T00:14:33;6.37;;;3.33;;
6821;SDS011;3449;48.728;8.968;2022-08-24T00:17:02;6.90;;;4.20;;
6821;SDS011;3449;48.728;8.968;2022-08-24T00:19:29;11.73;;;3.90;;
6821;SDS011;3449;48.728;8.968;2022-08-24T00:21:56;9.10;;;3.27;;
6821;SDS011;3449;48.728;8.968;2022-08-24T00:24:24;9.00;;;4.20;;
6821;SDS011;3449;48.728;8.968;2022-08-24T00:26:52;6.40;;;3.90;;
6821;SDS011;3449;48.728;8.968;2022-08-24T00:29:19;10.83;;;4.20;;
6821;SDS011;3449;48.728;8.968;2022-08-24T00:31:47;9.53;;;4.00;;
6821;SDS011;3449;48.728;8.968;2022-08-24T00:34:16;11.73;;;4.00;;
6821;SDS011;3449;48.728;8.968;2022-08-24T00:36:43;8.13;;;4.40;;
6821;SDS011;3449;48.728;8.968;2022-08-24T00:39:10;7.13;;;4.43;;
6821;SDS011;3449;48.728;8.968;2022-08-24T00:41:39;8.40;;;4.30;;
6821;SDS011;3449;48.728;8.968;2022-08-24T00:44:06;10.23;;;5.10;;
6821;SDS011;3449;48.728;8.968;2022-08-24T00:46:36;5.27;;;3.70;;
6821;SDS011;3449;48.728;8.968;2022-08-24T00:49:10;7.60;;;4.77;;
6821;SDS011;3449;48.728;8.968;2022-08-24T00:51:59;4.40;;;3.90;;
6821;SDS011;3449;48.728;8.968;2022-08-24T00:54:29;13.87;;;4.53;;
6821;SDS011;3449;48.728;8.968;2022-08-24T00:56:59;9.23;;;4.50;;
6821;SDS011;3449;48.728;8.968;2022-08-24T00:59:31;6.70;;;4.00;;
6821;SDS011;3449;48.728;8.968;2022-08-24T01:02:02;7.20;;;4.00;;
6821;SDS011;3449;48.728;8.968;2022-08-24T01:04:36;6.37;;;4.27;;
6821;SDS011;3449;48.728;8.968;2022-08-24T01:07:09;7.47;;;4.30;;
6821;SDS011;3449;48.728;8.968;2022-08-24T01:09:37;9.60;;;3.93;;
6821;SDS011;3449;48.728;8.968;2022-08-24T01:12:04;11.27;;;4.67;;
6821;SDS011;3449;48.728;8.968;2022-08-24T01:14:32;5.30;;;3.80;;
6821;SDS011;3449;48.728;8.968;2022-08-24T01:16:59;9.20;;;4.20;;
6821;SDS011;3449;48.728;8.968;2022-08-24T01:19:44;8.10;;;5.30;;
6821;SDS011;3449;48.728;8.968;2022-08-24T01:22:24;9.33;;;4.80;;
6821;SDS011;3449;48.728;8.968;2022-08-24T01:25:02;7.77;;;4.30;;
6821;SDS011;3449;48.728;8.968;2022-08-24T01:27:30;11.30;;;3.87;;
6821;SDS011;3449;48.728;8.968;2022-08-24T01:29:57;15.30;;;5.07;;
6821;SDS011;3449;48.728;8.968;2022-08-24T01:32:26;6.60;;;3.80;;
6821;SDS011;3449;48.728;8.968;2022-08-24T01:34:54;3.83;;;3.07;;
6821;SDS011;3449;48.728;8.968;2022-08-24T01:37:21;6.20;;;4.00;;
6821;SDS011;3449;48.728;8.968;2022-08-24T01:39:49;4.20;;;3.80;;
6821;SDS011;3449;48.728;8.968;2022-08-24T01:42:20;6.90;;;4.10;;
6821;SDS011;3449;48.728;8.968;2022-08-24T01:44:47;6.20;;;3.60;;
6821;SDS011;3449;48.728;8.968;2022-08-24T01:47:14;4.20;;;3.80;;
6821;SDS011;3449;48.728;8.968;2022-08-24T01:49:43;6.63;;;3.80;;
6821;SDS011;3449;48.728;8.968;2022-08-24T01:52:12;6.53;;;4.10;;
6821;SDS011;3449;48.728;8.968;2022-08-24T01:54:40;11.50;;;4.50;;
6821;SDS011;3449;48.728;8.968;2022-08-24T01:57:08;14.53;;;4.30;;
6821;SDS011;3449;48.728;8.968;2022-08-24T01:59:36;6.77;;;3.80;;
6821;SDS011;3449;48.728;8.968;2022-08-24T02:02:04;6.77;;;4.10;;
6821;SDS011;3449;48.728;8.968;2022-08-24T02:04:34;9.40;;;4.10;;
6821;SDS011;3449;48.728;8.968;2022-08-24T02:07:02;16.50;;;4.37;;
6821;SDS011;3449;48.728;8.968;2022-08-24T02:09:30;5.67;;;4.00;;
6821;SDS011;3449;48.728;8.968;2022-08-24T02:11:56;7.00;;;5.00;;
6821;SDS011;3449;48.728;8.968;2022-08-24T02:14:24;8.27;;;4.70;;
6821;SDS011;3449;48.728;8.968;2022-08-24T02:16:52;8.63;;;3.80;;
6821;SDS011;3449;48.728;8.968;2022-08-24T02:19:20;6.10;;;3.93;;
6821;SDS011;3449;48.728;8.968;2022-08-24T02:21:47;16.43;;;3.73;;
6821;SDS011;3449;48.728;8.968;2022-08-24T02:24:14;4.20;;;3.23;;
6821;SDS011;3449;48.728;8.968;2022-08-24T02:26:41;5.63;;;3.73;;
6821;SDS011;3449;48.728;8.968;2022-08-24T02:29:08;9.83;;;3.60;;
6821;SDS011;3449;48.728;8.968;2022-08-24T02:31:35;7.90;;;4.23;;
6821;SDS011;3449;48.728;8.968;2022-08-24T02:34:03;5.50;;;3.70;;
6821;SDS011;3449;48.728;8.968;2022-08-24T02:36:30;7.47;;;3.73;;
6821;SDS011;3449;48.728;8.968;2022-08-24T02:38:57;6.70;;;3.80;;
6821;SDS011;3449;48.728;8.968;2022-08-24T02:41:25;4.40;;;4.00;;
6821;SDS011;3449;48.728;8.968;2022-08-24T02:43:52;7.23;;;4.60;;
6821;SDS011;3449;48.728;8.968;2022-08-24T02:46:22;6.37;;;4.10;;
6821;SDS011;3449;48.728;8.968;2022-08-24T02:48:50;13.70;;;4.77;;
6821;SDS011;3449;48.728;8.968;2022-08-24T02:51:19;4.60;;;3.93;;
6821;SDS011;3449;48.728;8.968;2022-08-24T02:53:46;9.00;;;4.97;;
6821;SDS011;3449;48.728;8.968;2022-08-24T02:56:13;9.57;;;4.30;;
6821;SDS011;3449;48.728;8.968;2022-08-24T02:58:41;7.33;;;3.80;;
6821;SDS011;3449;48.728;8.968;2022-08-24T03:01:08;9.20;;;4.33;;
6821;SDS011;3449;48.728;8.968;2022-08-24T03:03:36;5.40;;;3.50;;
6821;SDS011;3449;48.728;8.968;2022-08-24T03:06:04;5.33;;;3.97;;
6821;SDS011;3449;48.728;8.968;2022-08-24T03:08:33;5.27;;;4.00;;
6821;SDS011;3449;48.728;8.968;2022-08-24T03:11:00;8.97;;;4.30;;
6821;SDS011;3449;48.728;8.968;2022-08-24T03:13:28;7.13;;;4.30;;
6821;SDS011;3449;48.728;8.968;2022-08-24T03:15:56;10.40;;;4.70;;
6821;SDS011;3449;48.728;8.968;2022-08-24T03:18:24;15.03;;;4.27;;
6821;SDS011;3449;48.728;8.968;2022-08-24T03:20:52;5.43;;;4.10;;
6821;SDS011;3449;48.728;8.968;2022-08-24T03:23:19;9.50;;;4.37;;
6821;SDS011;3449;48.728;8.968;2022-08-24T03:25:47;5.80;;;3.73;;
6821;SDS011;3449;48.728;8.968;2022-08-24T03:28:15;7.03;;;4.70;;
6821;SDS011;3449;48.728;8.968;2022-08-24T03:30:42;4.90;;;4.00;;
6821;SDS011;3449;48.728;8.968;2022-08-24T03:33:09;6.03;;;4.33;;
6821;SDS011;3449;48.728;8.968;2022-08-24T03:35:37;7.23;;;4.50;;
6821;SDS011;3449;48.728;8.968;2022-08-24T03:38:05;6.97;;;4.50;;
6821;SDS011;3449;48.728;8.968;2022-08-24T03:40:32;8.13;;;4.40;;
6821;SDS011;3449;48.728;8.968;2022-08-24T03:43:01;10.57;;;4.77;;
6821;SDS011;3449;48.728;8.968;2022-08-24T03:45:28;9.93;;;4.40;;
6821;SDS011;3449;48.728;8.968;2022-08-24T03:47:55;6.90;;;3.90;;
6821;SDS011;3449;48.728;8.968;2022-08-24T03:50:22;7.90;;;5.20;;
6821;SDS011;3449;48.728;8.968;2022-08-24T03:52:51;10.13;;;4.93;;
6821;SDS011;3449;48.728;8.968;2022-08-24T03:55:19;8.20;;;4.50;;
6821;SDS011;3449;48.728;8.968;2022-08-24T03:57:46;7.50;;;4.43;;
6821;SDS011;3449;48.728;8.968;2022-08-24T04:00:14;9.40;;;4.30;;
6821;SDS011;3449;48.728;8.968;2022-08-24T04:02:42;4.90;;;4.40;;
6821;SDS011;3449;48.728;8.968;2022-08-24T04:05:09;5.60;;;4.30;;
6821;SDS011;3449;48.728;8.968;2022-08-24T04:07:37;5.00;;;4.47;;
6821;SDS011;3449;48.728;8.968;2022-08-24T04:10:04;5.80;;;4.73;;
6821;SDS011;3449;48.728;8.968;2022-08-24T04:12:31;9.07;;;5.00;;
6821;SDS011;3449;48.728;8.968;2022-08-24T04:14:58;10.20;;;4.70;;
6821;SDS011;3449;48.728;8.968;2022-08-24T04:17:27;5.80;;;4.90;;
6821;SDS011;3449;48.728;8.968;2022-08-24T04:19:54;6.20;;;4.50;;
6821;SDS011;3449;48.728;8.968;2022-08-24T04:22:24;11.80;;;4.60;;
6821;SDS011;3449;48.728;8.968;2022-08-24T04:24:52;14.37;;;4.57;;
6821;SDS011;3449;48.728;8.968;2022-08-24T04:27:19;14.20;;;5.53;;
6821;SDS011;3449;48.728;8.968;2022-08-24T04:29:46;6.43;;;4.93;;
6821;SDS011;3449;48.728;8.968;2022-08-24T04:32:13;13.00;;;5.20;;
6821;SDS011;3449;48.728;8.968;2022-08-24T04:34:42;7.63;;;5.03;;
6821;SDS011;3449;48.728;8.968;2022-08-24T04:37:09;7.80;;;4.33;;
6821;SDS011;3449;48.728;8.968;2022-08-24T04:39:37;8.07;;;4.30;;
6821;SDS011;3449;48.728;8.968;2022-08-24T04:42:04;8.03;;;5.10;;
6821;SDS011;3449;48.728;8.968;2022-08-24T04:44:31;12.73;;;4.70;;
6821;SDS011;3449;48.728;8.968;2022-08-24T04:46:58;10.37;;;4.80;;
6821;SDS011;3449;48.728;8.968;2022-08-24T04:49:26;10.53;;;4.50;;
6821;SDS011;3449;48.728;8.968;2022-08-24T04:51:55;8.97;;;5.13;;
6821;SDS011;3449;48.728;8.968;2022-08-24T04:54:22;9.03;;;4.60;;
6821;SDS011;3449;48.728;8.968;2022-08-24T04:56:49;7.93;;;4.10;;
6821;SDS011;3449;48.728;8.968;2022-08-24T04:59:16;9.83;;;5.30;;
6821;SDS011;3449;48.728;8.968;2022-08-24T05:01:43;10.30;;;4.60;;
6821;SDS011;3449;48.728;8.968;2022-08-24T05:04:10;17.93;;;5.00;;
6821;SDS011;3449;48.728;8.968;2022-08-24T05:06:39;11.50;;;5.20;;
6821;SDS011;3449;48.728;8.968;2022-08-24T05:09:08;22.87;;;5.97;;
6821;SDS011;3449;48.728;8.968;2022-08-24T05:11:35;16.40;;;5.83;;
6821;SDS011;3449;48.728;8.968;2022-08-24T05:14:05;24.90;;;5.97;;
6821;SDS011;3449;48.728;8.968;2022-08-24T05:16:32;26.70;;;6.57;;
6821;SDS011;3449;48.728;8.968;2022-08-24T05:19:02;16.70;;;5.20;;
6821;SDS011;3449;48.728;8.968;2022-08-24T05:21:31;18.33;;;5.80;;
6821;SDS011;3449;48.728;8.968;2022-08-24T05:23:58;9.27;;;4.70;;
6821;SDS011;3449;48.728;8.968;2022-08-24T05:26:27;8.87;;;5.20;;
6821;SDS011;3449;48.728;8.968;2022-08-24T05:28:55;13.87;;;5.63;;
6821;SDS011;3449;48.728;8.968;2022-08-24T05:31:24;13.60;;;5.50;;
6821;SDS011;3449;48.728;8.968;2022-08-24T05:33:52;7.30;;;4.83;;
6821;SDS011;3449;48.728;8.968;2022-08-24T05:36:20;8.13;;;4.60;;
6821;SDS011;3449;48.728;8.968;2022-08-24T05:38:49;9.27;;;4.57;;
6821;SDS011;3449;48.728;8.968;2022-08-24T05:41:18;8.93;;;4.30;;
6821;SDS011;3449;48.728;8.968;2022-08-24T05:43:47;8.93;;;5.43;;
6821;SDS011;3449;48.728;8.968;2022-08-24T05:46:14;13.47;;;4.80;;
6821;SDS011;3449;48.728;8.968;2022-08-24T05:48:41;6.90;;;4.90;;
6821;SDS011;3449;48.728;8.968;2022-08-24T05:51:09;5.30;;;4.50;;
6821;SDS011;3449;48.728;8.968;2022-08-24T05:53:37;10.53;;;4.80;;
6821;SDS011;3449;48.728;8.968;2022-08-24T05:56:05;12.77;;;5.13;;
6821;SDS011;3449;48.728;8.968;2022-08-24T05:58:34;10.00;;;5.57;;
6821;SDS011;3449;48.728;8.968;2022-08-24T06:01:05;13.40;;;4.90;;
6821;SDS011;3449;48.728;8.968;2022-08-24T06:03:34;8.20;;;4.93;;
6821;SDS011;3449;48.728;8.968;2022-08-24T06:06:01;5.70;;;3.83;;
6821;SDS011;3449;48.728;8.968;2022-08-24T06:08:30;6.80;;;4.43;;
6821;SDS011;3449;48.728;8.968;2022-08-24T06:10:59;11.07;;;4.57;;
6821;SDS011;3449;48.728;8.968;2022-08-24T06:13:26;8.83;;;4.63;;
6821;SDS011;3449;48.728;8.968;2022-08-24T06:16:00;14.67;;;3.60;;
6821;SDS011;3449;48.728;8.968;2022-08-24T06:18:30;12.90;;;4.50;;
6821;SDS011;3449;48.728;8.968;2022-08-24T06:20:57;11.33;;;5.27;;
6821;SDS011;3449;48.728;8.968;2022-08-24T06:23:28;11.33;;;3.90;;
6821;SDS011;3449;48.728;8.968;2022-08-24T06:25:56;15.63;;;4.97;;
6821;SDS011;3449;48.728;8.968;2022-08-24T06:28:43;8.43;;;4.67;;
6821;SDS011;3449;48.728;8.968;2022-08-24T06:31:10;9.30;;;4.20;;
6821;SDS011;3449;48.728;8.968;2022-08-24T06:33:38;11.73;;;4.67;;
6821;SDS011;3449;48.728;8.968;2022-08-24T06:36:06;14.63;;;4.20;;
6821;SDS011;3449;48.728;8.968;2022-08-24T06:38:33;10.77;;;4.50;;
6821;SDS011;3449;48.728;8.968;2022-08-24T06:41:00;11.57;;;4.60;;
6821;SDS011;3449;48.728;8.968;2022-08-24T06:43:27;10.90;;;3.80;;
6821;SDS011;3449;48.728;8.968;2022-08-24T06:45:55;8.53;;;4.53;;
6821;SDS011;3449;48.728;8.968;2022-08-24T06:48:22;12.33;;;4.77;;
6821;SDS011;3449;48.728;8.968;2022-08-24T06:50:51;8.40;;;4.73;;
6821;SDS011;3449;48.728;8.968;2022-08-24T06:53:19;7.10;;;3.90;;
6821;SDS011;3449;48.728;8.968;2022-08-24T06:55:47;8.77;;;4.20;;
6821;SDS011;3449;48.728;8.968;2022-08-24T06:58:15;11.20;;;5.53;;
6821;SDS011;3449;48.728;8.968;2022-08-24T07:00:42;14.20;;;4.47;;
6821;SDS011;3449;48.728;8.968;2022-08-24T07:03:10;16.03;;;4.87;;
6821;SDS011;3449;48.728;8.968;2022-08-24T07:05:37;13.30;;;4.30;;
6821;SDS011;3449;48.728;8.968;2022-08-24T07:08:06;9.07;;;3.77;;
6821;SDS011;3449;48.728;8.968;2022-08-24T07:10:33;7.07;;;3.70;;
6821;SDS011;3449;48.728;8.968;2022-08-24T07:13:00;8.37;;;4.10;;
6821;SDS011;3449;48.728;8.968;2022-08-24T07:15:28;7.60;;;4.00;;
6821;SDS011;3449;48.728;8.968;2022-08-24T07:17:55;17.63;;;3.90;;
6821;SDS011;3449;48.728;8.968;2022-08-24T07:20:22;10.63;;;3.70;;
6821;SDS011;3449;48.728;8.968;2022-08-24T07:22:50;11.53;;;3.70;;
6821;SDS011;3449;48.728;8.968;2022-08-24T07:25:18;7.53;;;3.37;;
6821;SDS011;3449;48.728;8.968;2022-08-24T07:27:45;10.23;;;3.53;;
6821;SDS011;3449;48.728;8.968;2022-08-24T07:30:12;12.23;;;3.60;;
6821;SDS011;3449;48.728;8.968;2022-08-24T07:32:39;15.10;;;3.70;;
6821;SDS011;3449;48.728;8.968;2022-08-24T07:35:07;10.80;;;3.20;;
6821;SDS011;3449;48.728;8.968;2022-08-24T07:37:34;15.43;;;3.57;;
6821;SDS011;3449;48.728;8.968;2022-08-24T07:40:01;10.40;;;3.90;;
6821;SDS011;3449;48.728;8.968;2022-08-24T07:42:30;12.03;;;4.07;;
6821;SDS011;3449;48.728;8.968;2022-08-24T07:44:57;6.17;;;3.20;;
6821;SDS011;3449;48.728;8.968;2022-08-24T07:47:24;13.47;;;3.20;;
6821;SDS011;3449;48.728;8.968;2022-08-24T07:49:52;13.23;;;4.07;;
6821;SDS011;3449;48.728;8.968;2022-08-24T07:52:19;15.80;;;3.63;;
6821;SDS011;3449;48.728;8.968;2022-08-24T07:54:46;10.40;;;3.17;;
6821;SDS011;3449;48.728;8.968;2022-08-24T07:57:13;8.10;;;3.30;;
6821;SDS011;3449;48.728;8.968;2022-08-24T07:59:42;8.20;;;3.00;;
6821;SDS011;3449;48.728;8.968;2022-08-24T08:02:11;11.27;;;3.77;;
6821;SDS011;3449;48.728;8.968;2022-08-24T08:04:38;6.60;;;3.27;;
6821;SDS011;3449;48.728;8.968;2022-08-24T08:07:06;12.27;;;3.50;;
6821;SDS011;3449;48.728;8.968;2022-08-24T08:09:35;4.23;;;3.20;;
6821;SDS011;3449;48.728;8.968;2022-08-24T08:12:02;3.83;;;2.97;;
6821;SDS011;3449;48.728;8.968;2022-08-24T08:14:30;7.77;;;3.40;;
6821;SDS011;3449;48.728;8.968;2022-08-24T08:16:58;7.77;;;3.07;;
6821;SDS011;3449;48.728;8.968;2022-08-24T08:19:25;2.63;;;2.00;;
6821;SDS011;3449;48.728;8.968;2022-08-24T08:21:52;8.60;;;2.60;;
6821;SDS011;3449;48.728;8.968;2022-08-24T08:24:37;3.27;;;1.93;;
6821;SDS011;3449;48.728;8.968;2022-08-24T08:27:06;4.23;;;2.60;;
6821;SDS011;3449;48.728;8.968;2022-08-24T08:29:33;5.93;;;2.80;;
6821;SDS011;3449;48.728;8.968;2022-08-24T08:32:05;4.03;;;2.10;;
6821;SDS011;3449;48.728;8.968;2022-08-24T08:34:32;5.50;;;2.30;;
6821;SDS011;3449;48.728;8.968;2022-08-24T08:36:59;4.50;;;2.40;;
6821;SDS011;3449;48.728;8.968;2022-08-24T08:39:28;2.60;;;2.03;;
6821;SDS011;3449;48.728;8.968;2022-08-24T08:42:00;7.60;;;2.37;;
6821;SDS011;3449;48.728;8.968;2022-08-24T08:44:54;3.30;;;2.33;;
6821;SDS011;3449;48.728;8.968;2022-08-24T08:51:14;7.10;;;2.30;;
6821;SDS011;3449;48.728;8.968;2022-08-24T08:54:05;6.33;;;2.13;;
6821;SDS011;3449;48.728;8.968;2022-08-24T08:56:48;8.40;;;1.83;;
6821;SDS011;3449;48.728;8.968;2022-08-24T08:59:32;7.70;;;1.73;;
6821;SDS011;3449;48.728;8.968;2022-08-24T09:02:12;2.40;;;1.80;;
6821;SDS011;3449;48.728;8.968;2022-08-24T09:04:52;4.10;;;1.70;;
6821;SDS011;3449;48.728;8.968;2022-08-24T09:07:35;3.40;;;1.77;;
6821;SDS011;3449;48.728;8.968;2022-08-24T09:10:17;6.40;;;2.03;;
6821;SDS011;3449;48.728;8.968;2022-08-24T09:13:06;1.73;;;1.50;;
6821;SDS011;3449;48.728;8.968;2022-08-24T09:15:47;4.60;;;1.80;;
6821;SDS011;3449;48.728;8.968;2022-08-24T09:18:31;3.40;;;1.90;;
6821;SDS011;3449;48.728;8.968;2022-08-24T09:21:16;2.10;;;1.63;;
6821;SDS011;3449;48.728;8.968;2022-08-24T09:23:54;2.07;;;1.87;;
6821;SDS011;3449;48.728;8.968;2022-08-24T09:26:28;1.87;;;1.57;;
6821;SDS011;3449;48.728;8.968;2022-08-24T09:29:00;5.53;;;2.03;;
6821;SDS011;3449;48.728;8.968;2022-08-24T09:31:38;1.97;;;1.77;;
6821;SDS011;3449;48.728;8.968;2022-08-24T09:34:34;3.43;;;1.60;;
6821;SDS011;3449;48.728;8.968;2022-08-24T09:40:15;3.20;;;1.40;;
6821;SDS011;3449;48.728;8.968;2022-08-24T09:49:10;1.43;;;1.33;;
6821;SDS011;3449;48.728;8.968;2022-08-24T09:52:08;2.70;;;1.20;;
6821;SDS011;3449;48.728;8.968;2022-08-24T09:58:12;6.83;;;1.87;;
6821;SDS011;3449;48.728;8.968;2022-08-24T10:00:47;3.90;;;1.83;;
6821;SDS011;3449;48.728;8.968;2022-08-24T10:03:27;2.57;;;1.73;;
6821;SDS011;3449;48.728;8.968;2022-08-24T10:06:12;3.63;;;1.70;;
6821;SDS011;3449;48.728;8.968;2022-08-24T10:08:54;2.57;;;1.80;;
6821;SDS011;3449;48.728;8.968;2022-08-24T10:11:37;8.33;;;1.80;;
6821;SDS011;3449;48.728;8.968;2022-08-24T10:14:15;2.03;;;1.60;;
6821;SDS011;3449;48.728;8.968;2022-08-24T10:16:52;2.63;;;2.00;;
6821;SDS011;3449;48.728;8.968;2022-08-24T10:19:37;4.00;;;1.70;;
6821;SDS011;3449;48.728;8.968;2022-08-24T10:22:15;4.77;;;1.90;;
6821;SDS011;3449;48.728;8.968;2022-08-24T10:24:58;2.83;;;1.60;;
6821;SDS011;3449;48.728;8.968;2022-08-24T10:27:50;1.87;;;1.43;;
6821;SDS011;3449;48.728;8.968;2022-08-24T10:33:20;4.03;;;2.40;;
6821;SDS011;3449;48.728;8.968;2022-08-24T10:36:03;2.63;;;2.00;;
6821;SDS011;3449;48.728;8.968;2022-08-24T10:38:48;2.30;;;1.40;;
6821;SDS011;3449;48.728;8.968;2022-08-24T10:44:45;4.97;;;1.90;;
6821;SDS011;3449;48.728;8.968;2022-08-24T10:47:22;4.40;;;1.40;;
6821;SDS011;3449;48.728;8.968;2022-08-24T10:53:11;6.07;;;1.77;;
6821;SDS011;3449;48.728;8.968;2022-08-24T10:55:45;2.77;;;1.70;;
6821;SDS011;3449;48.728;8.968;2022-08-24T11:01:14;1.83;;;1.73;;
6821;SDS011;3449;48.728;8.968;2022-08-24T11:04:02;1.87;;;1.60;;
6821;SDS011;3449;48.728;8.968;2022-08-24T11:06:33;3.27;;;1.60;;
6821;SDS011;3449;48.728;8.968;2022-08-24T11:09:03;3.50;;;2.03;;
6821;SDS011;3449;48.728;8.968;2022-08-24T11:11:34;2.10;;;1.90;;
6821;SDS011;3449;48.728;8.968;2022-08-24T11:14:05;3.67;;;1.47;;
6821;SDS011;3449;48.728;8.968;2022-08-24T11:16:36;3.77;;;1.53;;
6821;SDS011;3449;48.728;8.968;2022-08-24T11:19:07;3.70;;;1.60;;
6821;SDS011;3449;48.728;8.968;2022-08-24T11:21:39;2.00;;;1.50;;
6821;SDS011;3449;48.728;8.968;2022-08-24T11:24:10;3.57;;;1.30;;
6821;SDS011;3449;48.728;8.968;2022-08-24T11:26:51;1.93;;;1.73;;
6821;SDS011;3449;48.728;8.968;2022-08-24T11:29:21;2.50;;;1.40;;
6821;SDS011;3449;48.728;8.968;2022-08-24T11:31:57;3.80;;;1.30;;
6821;SDS011;3449;48.728;8.968;2022-08-24T11:34:33;1.90;;;1.70;;
6821;SDS011;3449;48.728;8.968;2022-08-24T11:37:02;8.20;;;2.00;;
6821;SDS011;3449;48.728;8.968;2022-08-24T11:39:32;3.03;;;1.47;;
6821;SDS011;3449;48.728;8.968;2022-08-24T11:42:02;2.80;;;1.63;;
6821;SDS011;3449;48.728;8.968;2022-08-24T11:44:40;2.53;;;1.73;;
6821;SDS011;3449;48.728;8.968;2022-08-24T11:50:18;1.73;;;1.50;;
6821;SDS011;3449;48.728;8.968;2022-08-24T11:52:54;1.17;;;1.17;;
6821;SDS011;3449;48.728;8.968;2022-08-24T11:55:29;2.30;;;1.90;;
6821;SDS011;3449;48.728;8.968;2022-08-24T11:58:01;2.57;;;1.33;;
6821;SDS011;3449;48.728;8.968;2022-08-24T12:00:35;2.77;;;1.50;;
6821;SDS011;3449;48.728;8.968;2022-08-24T12:03:15;3.83;;;1.90;;
6821;SDS011;3449;48.728;8.968;2022-08-24T12:05:53;2.20;;;1.20;;
6821;SDS011;3449;48.728;8.968;2022-08-24T12:08:26;3.03;;;1.40;;
6821;SDS011;3449;48.728;8.968;2022-08-24T12:11:01;2.10;;;1.53;;
6821;SDS011;3449;48.728;8.968;2022-08-24T12:13:38;6.67;;;1.40;;
6821;SDS011;3449;48.728;8.968;2022-08-24T12:16:15;2.07;;;1.70;;
6821;SDS011;3449;48.728;8.968;2022-08-24T12:18:49;2.50;;;1.30;;
6821;SDS011;3449;48.728;8.968;2022-08-24T12:21:23;1.37;;;1.33;;
6821;SDS011;3449;48.728;8.968;2022-08-24T12:23:53;2.43;;;1.70;;
6821;SDS011;3449;48.728;8.968;2022-08-24T12:26:26;3.77;;;2.13;;
6821;SDS011;3449;48.728;8.968;2022-08-24T12:28:58;1.60;;;1.50;;
6821;SDS011;3449;48.728;8.968;2022-08-24T12:31:31;6.17;;;1.40;;
6821;SDS011;3449;48.728;8.968;2022-08-24T12:34:07;1.53;;;1.43;;
6821;SDS011;3449;48.728;8.968;2022-08-24T12:36:40;2.50;;;1.37;;
6821;SDS011;3449;48.728;8.968;2022-08-24T12:39:17;1.63;;;1.40;;
6821;SDS011;3449;48.728;8.968;2022-08-24T12:41:53;2.20;;;1.43;;
6821;SDS011;3449;48.728;8.968;2022-08-24T12:44:34;3.20;;;1.33;;
6821;SDS011;3449;48.728;8.968;2022-08-24T12:47:07;3.50;;;1.30;;
6821;SDS011;3449;48.728;8.968;2022-08-24T12:49:37;1.30;;;1.20;;
6821;SDS011;3449;48.728;8.968;2022-08-24T12:52:13;1.40;;;1.30;;
6821;SDS011;3449;48.728;8.968;2022-08-24T12:55:10;3.70;;;1.50;;
6821;SDS011;3449;48.728;8.968;2022-08-24T12:57:49;1.40;;;1.30;;
6821;SDS011;3449;48.728;8.968;2022-08-24T13:00:26;3.43;;;1.70;;
6821;SDS011;3449;48.728;8.968;2022-08-24T13:02:59;4.23;;;1.67;;
6821;SDS011;3449;48.728;8.968;2022-08-24T13:05:38;2.80;;;1.20;;
6821;SDS011;3449;48.728;8.968;2022-08-24T13:08:08;1.67;;;1.20;;
6821;SDS011;3449;48.728;8.968;2022-08-24T13:10:41;3.77;;;1.50;;
6821;SDS011;3449;48.728;8.968;2022-08-24T13:13:12;4.73;;;1.40;;
6821;SDS011;3449;48.728;8.968;2022-08-24T13:15:56;5.13;;;1.60;;
6821;SDS011;3449;48.728;8.968;2022-08-24T13:18:26;3.90;;;1.40;;
6821;SDS011;3449;48.728;8.968;2022-08-24T13:21:15;1.40;;;1.30;;
6821;SDS011;3449;48.728;8.968;2022-08-24T13:30:19;1.50;;;1.40;;
6821;SDS011;3449;48.728;8.968;2022-08-24T13:32:55;2.83;;;1.73;;
6821;SDS011;3449;48.728;8.968;2022-08-24T13:35:50;1.27;;;1.17;;
6821;SDS011;3449;48.728;8.968;2022-08-24T13:41:28;1.50;;;1.30;;
6821;SDS011;3449;48.728;8.968;2022-08-24T13:44:10;5.40;;;1.33;;
6821;SDS011;3449;48.728;8.968;2022-08-24T13:46:51;1.73;;;1.30;;
6821;SDS011;3449;48.728;8.968;2022-08-24T13:49:31;2.20;;;1.40;;
6821;SDS011;3449;48.728;8.968;2022-08-24T13:52:10;8.07;;;1.70;;
6821;SDS011;3449;48.728;8.968;2022-08-24T13:54:48;3.33;;;1.80;;
6821;SDS011;3449;48.728;8.968;2022-08-24T13:57:33;1.50;;;1.40;;
6821;SDS011;3449;48.728;8.968;2022-08-24T14:00:16;2.70;;;1.40;;
6821;SDS011;3449;48.728;8.968;2022-08-24T14:03:14;1.90;;;1.20;;
6821;SDS011;3449;48.728;8.968;2022-08-24T14:05:52;1.90;;;1.30;;
6821;SDS011;3449;48.728;8.968;2022-08-24T14:08:27;4.13;;;1.07;;
6821;SDS011;3449;48.728;8.968;2022-08-24T14:11:09;1.53;;;1.20;;
6821;SDS011;3449;48.728;8.968;2022-08-24T14:13:44;1.37;;;1.27;;
6821;SDS011;3449;48.728;8.968;2022-08-24T14:16:25;1.63;;;1.40;;
6821;SDS011;3449;48.728;8.968;2022-08-24T14:19:19;1.50;;;1.40;;
6821;SDS011;3449;48.728;8.968;2022-08-24T14:21:52;1.23;;;1.10;;
6821;SDS011;3449;48.728;8.968;2022-08-24T14:24:26;2.03;;;1.30;;
6821;SDS011;3449;48.728;8.968;2022-08-24T14:27:03;2.00;;;1.40;;
6821;SDS011;3449;48.728;8.968;2022-08-24T14:29:44;1.60;;;1.50;;
6821;SDS011;3449;48.728;8.968;2022-08-24T14:35:04;1.60;;;1.50;;
6821;SDS011;3449;48.728;8.968;2022-08-24T14:43:46;2.50;;;1.40;;
6821;SDS011;3449;48.728;8.968;2022-08-24T14:46:40;3.80;;;1.50;;
6821;SDS011;3449;48.728;8.968;2022-08-24T14:49:15;3.10;;;1.30;;
6821;SDS011;3449;48.728;8.968;2022-08-24T14:51:54;1.33;;;1.23;;
6821;SDS011;3449;48.728;8.968;2022-08-24T14:54:30;3.07;;;1.83;;
6821;SDS011;3449;48.728;8.968;2022-08-24T14:57:19;3.37;;;3.07;;
6821;SDS011;3449;48.728;8.968;2022-08-24T15:00:10;2.50;;;1.80;;
6821;SDS011;3449;48.728;8.968;2022-08-24T15:02:45;1.93;;;1.70;;
6821;SDS011;3449;48.728;8.968;2022-08-24T15:05:38;3.13;;;1.53;;
6821;SDS011;3449;48.728;8.968;2022-08-24T15:08:09;2.30;;;1.50;;
6821;SDS011;3449;48.728;8.968;2022-08-24T15:10:40;2.70;;;1.40;;
6821;SDS011;3449;48.728;8.968;2022-08-24T15:13:12;4.63;;;1.33;;
6821;SDS011;3449;48.728;8.968;2022-08-24T15:15:54;1.27;;;1.27;;
6821;SDS011;3449;48.728;8.968;2022-08-24T15:18:27;4.90;;;2.27;;
6821;SDS011;3449;48.728;8.968;2022-08-24T15:21:07;1.47;;;1.37;;
6821;SDS011;3449;48.728;8.968;2022-08-24T15:23:49;1.70;;;1.60;;
6821;SDS011;3449;48.728;8.968;2022-08-24T15:26:29;1.67;;;1.50;;
6821;SDS011;3449;48.728;8.968;2022-08-24T15:29:07;3.00;;;1.70;;
6821;SDS011;3449;48.728;8.968;2022-08-24T15:31:38;5.40;;;1.43;;
6821;SDS011;3449;48.728;8.968;2022-08-24T15:34:07;3.13;;;1.60;;
6821;SDS011;3449;48.728;8.968;2022-08-24T15:36:35;1.63;;;1.40;;
6821;SDS011;3449;48.728;8.968;2022-08-24T15:39:02;2.13;;;1.50;;
6821;SDS011;3449;48.728;8.968;2022-08-24T15:41:31;1.90;;;1.60;;
6821;SDS011;3449;48.728;8.968;2022-08-24T15:44:01;2.33;;;1.50;;
6821;SDS011;3449;48.728;8.968;2022-08-24T15:46:33;2.03;;;1.30;;
6821;SDS011;3449;48.728;8.968;2022-08-24T15:49:07;3.27;;;1.50;;
6821;SDS011;3449;48.728;8.968;2022-08-24T15:51:43;1.60;;;1.50;;
6821;SDS011;3449;48.728;8.968;2022-08-24T15:54:14;2.30;;;1.63;;
6821;SDS011;3449;48.728;8.968;2022-08-24T15:56:55;1.93;;;1.60;;
6821;SDS011;3449;48.728;8.968;2022-08-24T15:59:25;1.87;;;1.47;;
6821;SDS011;3449;48.728;8.968;2022-08-24T16:01:58;1.33;;;1.23;;
6821;SDS011;3449;48.728;8.968;2022-08-24T16:04:59;7.90;;;1.60;;
6821;SDS011;3449;48.728;8.968;2022-08-24T16:10:34;6.03;;;2.10;;
6821;SDS011;3449;48.728;8.968;2022-08-24T16:13:08;1.80;;;1.70;;
6821;SDS011;3449;48.728;8.968;2022-08-24T16:15:46;3.70;;;1.70;;
6821;SDS011;3449;48.728;8.968;2022-08-24T16:18:15;4.27;;;1.90;;
6821;SDS011;3449;48.728;8.968;2022-08-24T16:20:45;2.83;;;1.60;;
6821;SDS011;3449;48.728;8.968;2022-08-24T16:23:20;1.80;;;1.70;;
6821;SDS011;3449;48.728;8.968;2022-08-24T16:25:49;7.47;;;2.23;;
6821;SDS011;3449;48.728;8.968;2022-08-24T16:28:36;2.20;;;1.93;;
6821;SDS011;3449;48.728;8.968;2022-08-24T16:31:03;3.03;;;2.20;;
6821;SDS011;3449;48.728;8.968;2022-08-24T16:33:36;1.73;;;1.63;;
6821;SDS011;3449;48.728;8.968;2022-08-24T16:36:08;2.00;;;1.90;;
6821;SDS011;3449;48.728;8.968;2022-08-24T16:38:37;2.23;;;2.13;;